Time;durP1;ratioP1;P1;durP2;ratioP2;P2;SDS_P1;SDS_P2;PMS_P1;PMS_P2;Temp;Humidity;BMP_temperature;BMP_pressure;BME280_temperature;BME280_humidity;BME280_pressure;Samples;Min_cycle;Max_cycle;Signal;HPM_P1;HPM_P2
2023/10/01 00:00:36;;;;;;;5.67;4.37;;;14.80;99.90;;;;;;4992465;28;20446;-63
2023/10/01 00:03:20;;;;;;;8.23;4.80;;;14.80;99.90;;;;;;4992795;28;20423;-65
2023/10/01 00:05:52;;;;;;;6.97;5.50;;;14.80;99.90;;;;;;5036032;28;20794;-64
2023/10/01 00:08:18;;;;;;;5.43;4.47;;;14.80;99.90;;;;;;5084574;28;20469;-64
2023/10/01 00:10:50;;;;;;;5.50;4.90;;;14.80;99.90;;;;;;5092557;28;21076;-64
2023/10/01 00:13:35;;;;;;;7.37;5.30;;;14.90;99.90;;;;;;5091792;28;20190;-64
2023/10/01 00:16:29;;;;;;;6.13;4.73;;;14.80;99.90;;;;;;5091654;28;21292;-65
2023/10/01 00:19:42;;;;;;;5.87;4.70;;;14.80;99.90;;;;;;5090458;28;20529;-64
2023/10/01 00:22:38;;;;;;;8.33;4.90;;;14.80;99.90;;;;;;4996150;28;20801;-64
2023/10/01 00:25:43;;;;;;;4.93;4.43;;;14.70;99.90;;;;;;4983410;28;20613;-64
2023/10/01 00:32:29;;;;;;;6.73;5.47;;;14.50;99.90;;;;;;4969348;28;20433;-64
2023/10/01 00:35:14;;;;;;;5.20;4.47;;;14.50;99.90;;;;;;5019725;28;21057;-64
2023/10/01 00:37:53;;;;;;;6.40;4.67;;;14.30;99.90;;;;;;5012185;28;20477;-64
2023/10/01 00:40:24;;;;;;;4.77;4.20;;;14.30;99.90;;;;;;5018744;28;20435;-64
2023/10/01 00:46:48;;;;;;;5.80;4.63;;;14.30;99.90;;;;;;4983583;28;20518;-63
2023/10/01 00:49:14;;;;;;;6.40;5.10;;;14.20;99.90;;;;;;5019359;28;20481;-64
2023/10/01 00:51:48;;;;;;;6.50;4.67;;;14.20;99.90;;;;;;5020406;28;20433;-64
2023/10/01 00:54:17;;;;;;;6.57;4.90;;;14.20;99.90;;;;;;5020187;28;20482;-64
2023/10/01 00:57:08;;;;;;;8.90;4.83;;;14.30;99.90;;;;;;5012591;28;20875;-63
2023/10/01 00:59:39;;;;;;;9.43;4.70;;;14.30;99.90;;;;;;5019755;28;20448;-64
2023/10/01 01:03:06;;;;;;;5.83;4.20;;;14.20;99.90;;;;;;5019450;28;20494;-63
2023/10/01 01:09:51;;;;;;;7.23;5.23;;;13.90;99.90;;;;;;4955205;28;20491;-64
2023/10/01 01:12:17;;;;;;;7.20;5.53;;;13.90;99.90;;;;;;4884553;29;20526;-64
2023/10/01 01:15:27;;;;;;;6.27;4.80;;;13.90;99.90;;;;;;4932912;28;20791;-64
2023/10/01 01:18:55;;;;;;;9.50;5.07;;;13.90;99.90;;;;;;4937225;29;20429;-63
2023/10/01 01:21:20;;;;;;;5.33;4.53;;;14.00;99.90;;;;;;4865328;29;20451;-63
2023/10/01 01:24:28;;;;;;;6.73;4.00;;;14.00;99.90;;;;;;4942438;29;20944;-63
2023/10/01 01:27:05;;;;;;;6.27;4.47;;;14.10;99.90;;;;;;5016160;28;20278;-63
2023/10/01 01:29:44;;;;;;;5.70;4.93;;;14.10;99.90;;;;;;5091616;28;20472;-63
2023/10/01 01:34:58;;;;;;;7.07;4.60;;;14.00;99.90;;;;;;5103596;28;20498;-64
2023/10/01 01:41:19;;;;;;;5.63;5.10;;;13.90;99.90;;;;;;5085645;28;20462;-63
2023/10/01 01:44:07;;;;;;;5.03;4.53;;;13.90;99.90;;;;;;5083451;28;20441;-63
2023/10/01 01:46:48;;;;;;;7.40;5.30;;;13.90;99.90;;;;;;4995618;28;20504;-63
2023/10/01 01:49:18;;;;;;;8.60;4.70;;;13.80;99.90;;;;;;4998768;28;20581;-64
2023/10/01 01:52:09;;;;;;;6.43;5.10;;;13.90;99.90;;;;;;5000987;28;20982;-64
2023/10/01 01:54:45;;;;;;;5.67;4.60;;;13.90;99.90;;;;;;5003256;28;20441;-64
2023/10/01 02:01:55;;;;;;;6.93;4.60;;;13.90;99.90;;;;;;5086489;28;20523;-63
2023/10/01 02:04:29;;;;;;;8.30;4.67;;;13.80;99.90;;;;;;4961319;28;20456;-63
2023/10/01 02:07:00;;;;;;;8.57;5.60;;;13.80;99.90;;;;;;4947918;28;20546;-64
2023/10/01 02:09:34;;;;;;;5.33;4.80;;;13.80;99.90;;;;;;4964373;28;20483;-64
2023/10/01 02:12:23;;;;;;;6.10;4.90;;;13.90;99.90;;;;;;4930643;28;21271;-64
2023/10/01 02:15:25;;;;;;;5.67;5.00;;;13.90;99.90;;;;;;4957607;28;20842;-64
2023/10/01 02:21:43;;;;;;;6.00;5.10;;;13.90;99.90;;;;;;4967990;28;20433;-63
2023/10/01 02:24:54;;;;;;;6.03;4.90;;;14.00;99.90;;;;;;5022669;28;20429;-64
2023/10/01 02:27:42;;;;;;;7.27;5.47;;;13.90;99.90;;;;;;5022227;28;20437;-64
2023/10/01 02:30:16;;;;;;;7.30;5.90;;;13.90;99.90;;;;;;5022230;28;21242;-64
2023/10/01 02:35:35;;;;;;;5.90;5.27;;;13.90;99.90;;;;;;5087990;28;20449;-64
2023/10/01 02:38:37;;;;;;;5.97;4.80;;;13.80;99.90;;;;;;5105490;28;20417;-64
2023/10/01 02:41:08;;;;;;;7.47;5.37;;;13.90;99.90;;;;;;5091661;28;20958;-64
2023/10/01 02:43:35;;;;;;;5.30;4.70;;;13.80;99.90;;;;;;5105902;28;20441;-63
2023/10/01 02:49:32;;;;;;;7.80;5.30;;;13.70;99.90;;;;;;5072688;28;20493;-63
2023/10/01 02:52:03;;;;;;;8.77;5.17;;;13.80;99.90;;;;;;5105619;28;20425;-63
2023/10/01 02:54:37;;;;;;;6.93;5.43;;;13.80;99.90;;;;;;5105842;28;20469;-64
2023/10/01 03:03:17;;;;;;;6.03;4.97;;;13.80;99.90;;;;;;5105577;28;20425;-64
2023/10/01 03:05:49;;;;;;;6.53;4.73;;;13.90;99.90;;;;;;5097793;28;20429;-63
2023/10/01 03:12:27;;;;;;;7.40;4.33;;;13.90;99.90;;;;;;5081354;28;21136;-63
2023/10/01 03:15:24;;;;;;;11.10;5.37;;;14.00;99.90;;;;;;5024087;28;20437;-63
2023/10/01 03:18:36;;;;;;;5.00;4.37;;;14.00;99.90;;;;;;5000362;28;20434;-63
2023/10/01 03:22:15;;;;;;;8.27;5.13;;;14.00;99.90;;;;;;5001391;28;21004;-64
2023/10/01 03:24:25;;;;;;;5.90;4.37;;;14.00;99.90;;;;;;4924489;29;21043;-63
2023/10/01 03:27:33;;;;;;;10.07;4.57;;;14.00;99.90;;;;;;4924139;29;20478;-63
2023/10/01 03:30:05;;;;;;;4.43;4.00;;;14.00;99.90;;;;;;5033602;28;20485;-63
2023/10/01 03:32:32;;;;;;;6.73;4.90;;;14.00;99.90;;;;;;5102253;28;20456;-64
2023/10/01 03:35:07;;;;;;;6.60;4.17;;;14.00;99.90;;;;;;5090575;28;20457;-64
2023/10/01 03:41:22;;;;;;;6.33;4.10;;;14.10;99.90;;;;;;4982981;28;20437;-64
2023/10/01 03:43:56;;;;;;;5.40;4.00;;;14.10;99.90;;;;;;5001222;28;20436;-64
2023/10/01 03:46:31;;;;;;;5.70;4.40;;;14.10;99.90;;;;;;5054070;28;20448;-64
2023/10/01 03:52:03;;;;;;;8.40;5.00;;;14.20;99.90;;;;;;5096348;28;20920;-63
2023/10/01 03:54:52;;;;;;;6.20;4.50;;;14.30;99.90;;;;;;5104481;28;20433;-63
2023/10/01 03:57:52;;;;;;;5.93;4.33;;;14.20;99.90;;;;;;5103164;28;20916;-63
2023/10/01 04:00:41;;;;;;;5.70;4.07;;;14.30;99.90;;;;;;5075046;28;20476;-64
2023/10/01 04:07:11;;;;;;;5.33;4.23;;;14.30;99.90;;;;;;4996271;28;20440;-63
2023/10/01 04:09:47;;;;;;;5.60;4.07;;;14.30;99.90;;;;;;5020719;28;20469;-64
2023/10/01 04:12:32;;;;;;;6.83;4.37;;;14.40;99.90;;;;;;5094096;28;20445;-63
2023/10/01 04:15:09;;;;;;;5.33;4.00;;;14.30;99.90;;;;;;5096409;28;20545;-63
2023/10/01 04:18:08;;;;;;;7.00;4.40;;;14.40;99.90;;;;;;5103278;28;20991;-63
2023/10/01 04:23:41;;;;;;;5.47;3.80;;;14.40;99.90;;;;;;5078255;28;20441;-64
2023/10/01 04:27:10;;;;;;;6.37;4.23;;;14.50;99.90;;;;;;5103786;28;20428;-64
2023/10/01 04:29:44;;;;;;;5.27;4.17;;;14.50;99.90;;;;;;5089893;28;20469;-64
2023/10/01 04:32:12;;;;;;;4.70;4.20;;;14.50;99.90;;;;;;5100356;28;20425;-63
2023/10/01 04:35:14;;;;;;;5.80;3.90;;;14.60;99.90;;;;;;5103232;28;20432;-64
2023/10/01 04:38:14;;;;;;;4.90;4.03;;;14.60;99.90;;;;;;4999921;28;21110;-63
2023/10/01 04:40:39;;;;;;;5.00;3.87;;;14.60;99.90;;;;;;4999967;28;20438;-63
2023/10/01 04:43:19;;;;;;;5.50;4.40;;;14.60;99.90;;;;;;5077204;28;20444;-64
2023/10/01 04:46:20;;;;;;;7.70;3.87;;;14.60;99.90;;;;;;5094784;28;20928;-64
2023/10/01 04:52:33;;;;;;;5.40;4.03;;;14.70;99.90;;;;;;5030172;28;20444;-65
2023/10/01 04:55:08;;;;;;;9.10;4.10;;;14.70;99.90;;;;;;5039367;28;21474;-65
2023/10/01 04:57:41;;;;;;;6.10;4.47;;;14.70;99.90;;;;;;5060056;28;20506;-62
2023/10/01 05:00:11;;;;;;;4.13;3.50;;;14.70;99.90;;;;;;5091595;28;20537;-64
2023/10/01 05:05:57;;;;;;;5.80;3.60;;;14.70;99.90;;;;;;5086246;28;20429;-65
2023/10/01 05:08:38;;;;;;;7.90;4.33;;;14.70;99.90;;;;;;5094718;28;20474;-65
2023/10/01 05:11:21;;;;;;;7.80;4.13;;;14.70;99.90;;;;;;5084617;28;20982;-64
2023/10/01 05:14:22;;;;;;;4.60;3.60;;;14.70;99.90;;;;;;5091420;28;20540;-64
2023/10/01 05:17:07;;;;;;;5.67;3.97;;;14.70;99.90;;;;;;5000310;28;20533;-64
2023/10/01 05:20:15;;;;;;;7.03;4.63;;;14.70;99.90;;;;;;5102427;28;20998;-64
2023/10/01 05:22:51;;;;;;;6.47;4.17;;;14.70;99.90;;;;;;5102826;28;20990;-64
2023/10/01 05:25:26;;;;;;;5.17;4.00;;;14.70;99.90;;;;;;5089953;28;20437;-64
2023/10/01 05:27:54;;;;;;;5.23;4.00;;;14.60;99.90;;;;;;5101999;28;20437;-65
2023/10/01 05:30:42;;;;;;;5.87;4.27;;;14.70;99.90;;;;;;5102018;28;20516;-64
2023/10/01 05:33:46;;;;;;;5.23;3.67;;;14.70;99.90;;;;;;5099800;28;20462;-64
2023/10/01 05:36:52;;;;;;;5.57;3.60;;;14.70;99.90;;;;;;5092769;28;20433;-64
2023/10/01 05:42:08;;;;;;;4.00;3.30;;;14.60;99.90;;;;;;5102732;28;21335;-64
2023/10/01 05:45:14;;;;;;;5.57;3.90;;;14.60;99.90;;;;;;5102045;28;20802;-65
2023/10/01 05:48:01;;;;;;;6.27;4.13;;;14.60;99.90;;;;;;4996575;28;20553;-64
2023/10/01 06:01:15;;;;;;;6.30;4.10;;;14.40;99.90;;;;;;4860579;29;20504;-65
2023/10/01 06:03:42;;;;;;;4.83;3.60;;;14.50;99.90;;;;;;4865890;29;20432;-64
2023/10/01 06:06:36;;;;;;;6.57;4.30;;;14.50;99.90;;;;;;4878921;29;20253;-64
2023/10/01 06:09:16;;;;;;;5.37;3.80;;;14.50;99.90;;;;;;5004566;28;21680;-65
2023/10/01 06:18:59;;;;;;;8.40;4.73;;;14.50;99.90;;;;;;4917153;29;20440;-65
2023/10/01 06:21:41;;;;;;;5.60;3.97;;;14.60;99.90;;;;;;4941316;29;20796;-65
2023/10/01 06:24:16;;;;;;;6.50;4.33;;;14.60;99.90;;;;;;4934678;29;20512;-65
2023/10/01 06:27:01;;;;;;;9.80;5.27;;;14.60;99.90;;;;;;4921445;29;20494;-63
2023/10/01 06:29:27;;;;;;;5.87;3.80;;;14.70;99.90;;;;;;4942872;28;20479;-65
2023/10/01 06:32:51;;;;;;;6.83;4.57;;;14.70;99.90;;;;;;4979743;28;20420;-65
2023/10/01 06:35:19;;;;;;;7.73;4.30;;;14.80;99.90;;;;;;4942364;28;20558;-63
2023/10/01 06:37:59;;;;;;;7.90;4.93;;;14.80;99.90;;;;;;4943877;28;20426;-64
2023/10/01 06:40:31;;;;;;;6.23;4.37;;;14.80;99.90;;;;;;4969760;28;20433;-64
2023/10/01 06:43:48;;;;;;;8.20;4.80;;;14.90;99.90;;;;;;5014315;28;20425;-65
2023/10/01 06:46:29;;;;;;;5.90;3.90;;;14.90;99.90;;;;;;4998585;28;20438;-65
2023/10/01 06:49:33;;;;;;;8.07;4.93;;;14.90;99.90;;;;;;4995260;28;20504;-64
2023/10/01 06:52:32;;;;;;;8.97;4.40;;;15.00;99.90;;;;;;5036534;28;20623;-64
2023/10/01 06:55:32;;;;;;;12.30;6.00;;;15.10;99.90;;;;;;5099394;28;20440;-65
2023/10/01 06:58:07;;;;;;;8.23;5.53;;;15.10;99.90;;;;;;5105171;28;20491;-64
2023/10/01 07:00:41;;;;;;;8.40;4.90;;;15.10;99.90;;;;;;5104903;28;20433;-65
2023/10/01 07:03:30;;;;;;;7.07;4.37;;;15.20;99.90;;;;;;5105353;28;20440;-65
2023/10/01 07:06:22;;;;;;;8.20;4.93;;;15.30;99.90;;;;;;5097959;28;20418;-65
2023/10/01 07:16:00;;;;;;;9.17;5.30;;;15.70;99.90;;;;;;4943469;29;20824;-64
2023/10/01 07:18:31;;;;;;;8.90;5.53;;;15.90;99.90;;;;;;4950393;28;20435;-64
2023/10/01 07:21:33;;;;;;;9.03;5.37;;;16.00;99.90;;;;;;4962811;28;20436;-64
2023/10/01 07:24:04;;;;;;;10.50;5.97;;;16.20;99.90;;;;;;4938547;29;20468;-64
2023/10/01 07:27:07;;;;;;;11.13;5.63;;;16.50;99.90;;;;;;4971058;28;20446;-64
2023/10/01 07:33:00;;;;;;;9.77;5.40;;;16.90;99.90;;;;;;5033558;28;20434;-64
2023/10/01 07:35:28;;;;;;;10.90;6.57;;;17.20;99.90;;;;;;5105066;28;20461;-64
2023/10/01 07:37:54;;;;;;;10.30;5.30;;;17.40;99.90;;;;;;5091727;28;20846;-64
2023/10/01 07:40:23;;;;;;;9.60;5.90;;;17.60;99.90;;;;;;5102469;28;20421;-64
2023/10/01 07:42:57;;;;;;;9.57;5.93;;;17.80;99.90;;;;;;5099846;28;20203;-64
2023/10/01 07:45:55;;;;;;;9.33;6.40;;;17.90;99.90;;;;;;5101756;28;20439;-64
2023/10/01 07:52:05;;;;;;;12.13;6.70;;;18.30;99.90;;;;;;5001737;28;20443;-64
2023/10/01 07:54:40;;;;;;;9.90;6.20;;;18.40;99.90;;;;;;4999904;28;20537;-64
2023/10/01 08:00:44;;;;;;;11.87;6.90;;;18.60;99.90;;;;;;4986965;28;20476;-64
2023/10/01 08:09:08;;;;;;;9.73;6.00;;;18.80;99.90;;;;;;5001682;28;20508;-65
2023/10/01 08:12:29;;;;;;;11.90;6.20;;;18.90;99.90;;;;;;5004003;28;20593;-65
2023/10/01 08:21:30;;;;;;;9.83;6.40;;;19.00;99.90;;;;;;5000623;28;20529;-65
2023/10/01 08:25:08;;;;;;;11.20;6.50;;;19.10;99.90;;;;;;5001347;28;20441;-64
2023/10/01 08:28:08;;;;;;;9.03;5.37;;;19.20;99.90;;;;;;4977763;28;20455;-65
2023/10/01 08:33:42;;;;;;;12.53;7.03;;;19.20;99.90;;;;;;5020553;28;20433;-64
2023/10/01 08:36:42;;;;;;;10.27;5.80;;;19.40;99.90;;;;;;5020491;28;20499;-64
2023/10/01 08:42:36;;;;;;;11.03;5.93;;;19.50;99.90;;;;;;5020117;28;20433;-64
2023/10/01 08:47:49;;;;;;;10.50;5.73;;;19.70;99.90;;;;;;5024281;28;20433;-64
2023/10/01 08:50:28;;;;;;;10.67;6.07;;;19.80;99.90;;;;;;5099249;28;20511;-65
2023/10/01 08:53:36;;;;;;;10.17;5.60;;;19.90;99.90;;;;;;5096625;28;20430;-65
2023/10/01 08:57:15;;;;;;;11.70;6.53;;;19.90;99.90;;;;;;5055271;28;20429;-64
2023/10/01 08:59:47;;;;;;;11.30;6.60;;;20.10;99.90;;;;;;4999421;28;21126;-64
2023/10/01 09:02:19;;;;;;;10.27;6.13;;;20.20;99.90;;;;;;4999809;28;20670;-64
2023/10/01 09:04:50;;;;;;;12.90;6.97;;;20.30;99.90;;;;;;4999913;28;20843;-64
2023/10/01 09:11:35;;;;;;;8.23;5.30;;;20.50;99.90;;;;;;4918755;29;20442;-63
2023/10/01 09:16:58;;;;;;;10.10;6.57;;;20.60;99.90;;;;;;4959740;28;20516;-63
2023/10/01 09:19:43;;;;;;;10.60;6.73;;;20.70;99.90;;;;;;4960586;28;20463;-65
2023/10/01 09:22:40;;;;;;;7.60;5.60;;;20.90;99.90;;;;;;5019621;28;20433;-65
2023/10/01 09:25:33;;;;;;;9.77;6.20;;;21.10;99.90;;;;;;5009868;28;20519;-64
2023/10/01 09:28:03;;;;;;;11.10;6.03;;;21.40;99.90;;;;;;5017279;28;20448;-65
2023/10/01 09:30:34;;;;;;;12.13;7.57;;;21.50;99.90;;;;;;5037016;28;21292;-65
2023/10/01 09:33:14;;;;;;;8.80;5.70;;;21.60;99.90;;;;;;5039778;28;20444;-65
2023/10/01 09:35:59;;;;;;;11.50;6.10;;;21.50;99.90;;;;;;5040161;28;20476;-65
2023/10/01 09:39:03;;;;;;;11.63;7.10;;;21.60;99.90;;;;;;5102865;28;20841;-65
2023/10/01 09:41:43;;;;;;;11.07;6.43;;;21.80;99.90;;;;;;5064998;28;20482;-70
2023/10/01 09:44:14;;;;;;;9.43;6.50;;;21.90;99.90;;;;;;5104116;28;20434;-66
2023/10/01 09:46:47;;;;;;;12.00;6.70;;;22.00;99.90;;;;;;5100966;28;20786;-63
2023/10/01 09:49:30;;;;;;;8.33;5.60;;;22.10;99.90;;;;;;5101907;28;21152;-63
2023/10/01 09:52:04;;;;;;;10.13;6.20;;;22.10;99.90;;;;;;5095853;28;20437;-63
2023/10/01 09:54:54;;;;;;;7.83;5.97;;;22.20;99.90;;;;;;5101071;28;20548;-63
2023/10/01 09:57:20;;;;;;;8.23;5.57;;;22.20;99.90;;;;;;5102498;28;20475;-63
2023/10/01 09:59:50;;;;;;;12.30;6.30;;;22.30;99.90;;;;;;5101737;28;20463;-63
2023/10/01 10:02:57;;;;;;;10.37;6.40;;;22.40;99.90;;;;;;5102060;28;20512;-63
2023/10/01 10:05:32;;;;;;;10.57;6.60;;;22.50;99.90;;;;;;5099113;28;20430;-63
2023/10/01 10:08:13;;;;;;;9.80;6.10;;;22.60;99.90;;;;;;5102124;28;20433;-64
2023/10/01 10:11:06;;;;;;;12.03;6.57;;;22.50;99.90;;;;;;5101697;28;20513;-63
2023/10/01 10:14:24;;;;;;;;;;;;;;;;;;;;;
2023/10/01 10:20:44;;;;;;;9.00;5.83;;;22.60;99.90;;;;;;5105544;28;20441;-63
2023/10/01 10:23:41;;;;;;;10.00;6.07;;;22.60;99.90;;;;;;5105881;28;20436;-63
2023/10/01 10:26:38;;;;;;;10.90;5.87;;;22.70;99.90;;;;;;5100986;28;21158;-63
2023/10/01 10:29:10;;;;;;;9.03;6.17;;;22.80;99.90;;;;;;5105304;28;20495;-63
2023/10/01 10:32:10;;;;;;;9.63;5.63;;;22.80;99.90;;;;;;5069097;28;20528;-63
2023/10/01 10:35:14;;;;;;;8.47;5.93;;;22.90;99.90;;;;;;5105025;28;20440;-63
2023/10/01 10:37:45;;;;;;;11.00;6.20;;;22.80;99.90;;;;;;5097358;28;20447;-63
2023/10/01 10:43:27;;;;;;;9.87;6.07;;;22.60;99.90;;;;;;5105602;28;20482;-63
2023/10/01 10:46:08;;;;;;;9.17;5.80;;;22.50;99.90;;;;;;5105380;28;20435;-63
2023/10/01 10:48:59;;;;;;;8.83;5.70;;;22.50;99.90;;;;;;5103856;28;21034;-63
2023/10/01 10:51:47;;;;;;;8.07;6.00;;;22.40;99.90;;;;;;5102261;28;20433;-63
2023/10/01 10:58:15;;;;;;;7.40;5.60;;;22.30;99.90;;;;;;4991714;28;20833;-63
2023/10/01 11:04:07;;;;;;;11.13;7.00;;;22.20;99.90;;;;;;4990583;28;20443;-63
2023/10/01 11:09:34;;;;;;;9.80;5.90;;;22.20;99.90;;;;;;4980321;28;20981;-63
2023/10/01 11:15:23;;;;;;;9.20;5.70;;;22.40;99.90;;;;;;5068746;28;20547;-63
2023/10/01 11:18:09;;;;;;;9.30;5.57;;;22.40;99.90;;;;;;5068603;28;20472;-63
2023/10/01 11:20:36;;;;;;;10.67;6.87;;;22.50;99.90;;;;;;5103047;28;20426;-64
2023/10/01 11:23:08;;;;;;;9.10;5.70;;;22.60;99.90;;;;;;5098112;28;21218;-64
2023/10/01 11:25:40;;;;;;;9.53;5.97;;;22.70;99.90;;;;;;5095329;28;20480;-64
2023/10/01 11:28:11;;;;;;;11.60;5.87;;;22.70;99.90;;;;;;5092756;28;20491;-64
2023/10/01 11:31:17;;;;;;;12.60;6.37;;;22.80;99.90;;;;;;5103352;28;20426;-64
2023/10/01 11:33:58;;;;;;;11.47;6.37;;;22.80;99.90;;;;;;5102949;28;20909;-64
2023/10/01 11:36:56;;;;;;;10.13;6.80;;;22.80;99.90;;;;;;5103777;28;20437;-64
2023/10/01 11:39:54;;;;;;;12.10;6.00;;;22.90;99.90;;;;;;5000428;28;20439;-64
2023/10/01 11:42:35;;;;;;;9.03;6.07;;;23.00;99.90;;;;;;5103970;28;20434;-63
2023/10/01 11:45:36;;;;;;;9.83;6.07;;;23.10;99.90;;;;;;5104784;28;20442;-63
2023/10/01 11:48:19;;;;;;;9.60;6.20;;;23.20;99.90;;;;;;5098838;28;20417;-63
2023/10/01 11:57:08;;;;;;;9.37;6.40;;;23.40;99.90;;;;;;5098894;28;20422;-63
2023/10/01 12:00:04;;;;;;;11.00;6.40;;;23.40;99.90;;;;;;5082814;28;20430;-63
2023/10/01 12:02:43;;;;;;;10.20;6.03;;;23.40;99.90;;;;;;5079316;28;20430;-63
2023/10/01 12:05:38;;;;;;;11.47;6.80;;;23.40;99.90;;;;;;5104049;28;20437;-63
2023/10/01 12:08:05;;;;;;;9.60;6.87;;;23.40;99.90;;;;;;5066254;28;20433;-63
2023/10/01 12:11:20;;;;;;;10.30;6.50;;;23.40;99.90;;;;;;5102901;28;20434;-64
2023/10/01 12:14:08;;;;;;;10.50;6.67;;;23.40;99.90;;;;;;5065451;28;20495;-63
2023/10/01 12:16:39;;;;;;;10.57;6.97;;;23.40;99.90;;;;;;5102856;28;20448;-63
2023/10/01 12:19:26;;;;;;;10.63;6.93;;;23.40;99.90;;;;;;5103391;28;20842;-63
2023/10/01 12:22:10;;;;;;;10.17;7.10;;;23.50;99.90;;;;;;5096696;28;20425;-63
2023/10/01 12:24:44;;;;;;;9.93;6.03;;;23.50;99.90;;;;;;5101919;28;20417;-64
2023/10/01 12:27:40;;;;;;;11.93;6.70;;;23.60;99.90;;;;;;5103700;28;20443;-63
2023/10/01 12:30:35;;;;;;;10.90;7.30;;;23.60;99.90;;;;;;5103167;28;20472;-64
2023/10/01 12:33:02;;;;;;;10.40;6.70;;;23.70;99.90;;;;;;5097759;28;21012;-64
2023/10/01 12:39:32;;;;;;;8.97;6.40;;;23.80;99.90;;;;;;5021950;28;20515;-63
2023/10/01 12:42:16;;;;;;;10.67;7.07;;;23.90;99.90;;;;;;5039307;28;20479;-63
2023/10/01 12:44:43;;;;;;;10.33;7.10;;;23.80;99.90;;;;;;5038443;28;20471;-63
2023/10/01 12:47:40;;;;;;;12.33;7.13;;;23.80;99.90;;;;;;5039286;28;20440;-63
2023/10/01 12:50:15;;;;;;;11.63;7.30;;;23.80;99.90;;;;;;5038179;28;20558;-64
2023/10/01 12:52:41;;;;;;;11.60;7.20;;;23.80;99.90;;;;;;5038434;28;20444;-63
2023/10/01 12:55:15;;;;;;;11.67;6.53;;;23.70;99.90;;;;;;5038836;28;20429;-63
2023/10/01 12:57:46;;;;;;;13.33;8.40;;;23.80;99.90;;;;;;5038585;28;20242;-64
2023/10/01 13:03:24;;;;;;;10.33;7.07;;;23.80;99.90;;;;;;5034308;28;20945;-63
2023/10/01 13:06:31;;;;;;;12.30;7.37;;;23.90;99.90;;;;;;5053404;28;20427;-63
2023/10/01 13:09:34;;;;;;;11.17;7.20;;;24.00;99.90;;;;;;5058630;28;20557;-64
2023/10/01 13:11:59;;;;;;;10.97;7.20;;;24.00;99.90;;;;;;5054990;28;20443;-64
2023/10/01 13:14:34;;;;;;;11.87;7.63;;;23.90;99.90;;;;;;5077479;28;21187;-63
2023/10/01 13:17:21;;;;;;;11.63;8.00;;;23.90;99.90;;;;;;5101967;28;20456;-64
2023/10/01 13:20:18;;;;;;;11.67;7.60;;;24.00;99.90;;;;;;5077338;28;20421;-63
2023/10/01 13:23:09;;;;;;;10.87;7.53;;;24.10;99.90;;;;;;5093468;28;20563;-64
2023/10/01 13:29:28;;;;;;;12.20;7.60;;;23.80;99.90;;;;;;5094169;28;20465;-63
2023/10/01 13:32:03;;;;;;;9.30;7.00;;;23.70;99.90;;;;;;5095894;28;20512;-63
2023/10/01 13:37:48;;;;;;;13.13;8.37;;;23.70;99.90;;;;;;5100672;28;20434;-62
2023/10/01 14:08:46;;;;;;;11.50;7.90;;;23.60;99.90;;;;;;4965185;28;20564;-63
2023/10/01 14:12:10;;;;;;;9.57;7.20;;;23.60;99.90;;;;;;5004375;28;20444;-63
2023/10/01 14:15:21;;;;;;;10.50;7.87;;;23.50;99.90;;;;;;4936698;29;20209;-62
2023/10/01 14:17:53;;;;;;;11.03;7.20;;;23.30;99.90;;;;;;4911965;29;20500;-63
2023/10/01 14:23:40;;;;;;;11.93;8.20;;;23.10;99.90;;;;;;4981760;28;20481;-63
2023/10/01 14:29:05;;;;;;;11.70;7.53;;;23.00;99.90;;;;;;5078158;28;20513;-63
2023/10/01 14:31:49;;;;;;;13.87;7.87;;;23.00;99.90;;;;;;5083545;28;20436;-63
2023/10/01 14:37:07;;;;;;;12.50;7.80;;;23.00;99.90;;;;;;4998560;28;20422;-63
2023/10/01 14:40:15;;;;;;;11.40;7.57;;;23.00;99.90;;;;;;5070835;28;20441;-63
2023/10/01 14:42:59;;;;;;;13.47;7.87;;;23.00;99.90;;;;;;5073666;28;21354;-64
2023/10/01 14:49:11;;;;;;;14.23;7.90;;;23.10;99.90;;;;;;5053690;28;21539;-64
2023/10/01 14:55:07;;;;;;;13.43;8.53;;;23.00;99.90;;;;;;5015007;28;21830;-63
2023/10/01 14:57:51;;;;;;;14.50;9.07;;;23.00;99.90;;;;;;5022181;28;20845;-64
2023/10/01 15:00:49;;;;;;;12.30;7.60;;;23.00;99.90;;;;;;5065756;28;20427;-63
2023/10/01 15:03:39;;;;;;;13.20;8.77;;;23.00;99.90;;;;;;5077084;28;20434;-63
2023/10/01 15:06:36;;;;;;;13.77;9.13;;;23.00;99.90;;;;;;5080670;28;20509;-64
2023/10/01 15:09:07;;;;;;;13.57;8.73;;;23.00;99.90;;;;;;5077798;28;20568;-64
2023/10/01 15:11:36;;;;;;;15.17;8.90;;;22.90;99.90;;;;;;5073761;28;20439;-63
2023/10/01 15:14:11;;;;;;;11.20;7.97;;;22.80;99.90;;;;;;5073687;28;20466;-63
2023/10/01 15:16:52;;;;;;;11.90;8.00;;;22.70;99.90;;;;;;5068033;28;20431;-63
2023/10/01 15:22:28;;;;;;;12.87;9.00;;;22.60;99.90;;;;;;5084507;28;20488;-63
2023/10/01 15:25:00;;;;;;;11.50;7.77;;;22.60;99.90;;;;;;5065847;28;20424;-65
2023/10/01 15:27:59;;;;;;;13.87;9.30;;;22.50;99.90;;;;;;5073734;28;21039;-63
2023/10/01 15:30:44;;;;;;;12.63;9.10;;;22.50;99.90;;;;;;5018846;28;21113;-64
2023/10/01 15:33:20;;;;;;;10.03;7.40;;;22.50;99.90;;;;;;5021516;28;20479;-65
2023/10/01 15:35:55;;;;;;;11.67;8.07;;;22.40;99.90;;;;;;5022113;28;21270;-63
2023/10/01 15:38:39;;;;;;;12.30;7.90;;;22.50;99.90;;;;;;5021359;28;20802;-63
2023/10/01 15:41:09;;;;;;;11.40;8.07;;;22.40;99.90;;;;;;5021774;28;21022;-63
2023/10/01 15:43:42;;;;;;;10.80;7.60;;;22.40;99.90;;;;;;5003074;28;20438;-63
2023/10/01 15:46:11;;;;;;;10.13;7.63;;;22.40;99.90;;;;;;5021652;28;20433;-62
2023/10/01 15:48:48;;;;;;;10.30;7.73;;;22.30;99.90;;;;;;5084107;28;20480;-63
2023/10/01 15:54:49;;;;;;;11.80;7.93;;;22.30;99.90;;;;;;5041641;28;21139;-64
2023/10/01 15:57:21;;;;;;;11.40;7.50;;;22.30;99.90;;;;;;5076546;28;20488;-63
2023/10/01 16:03:29;;;;;;;10.93;7.87;;;22.30;99.90;;;;;;5064796;28;20435;-63
2023/10/01 16:06:13;;;;;;;11.33;8.00;;;22.30;99.90;;;;;;5072674;28;20427;-64
2023/10/01 16:08:48;;;;;;;12.00;7.93;;;22.20;99.90;;;;;;5066564;28;20835;-64
2023/10/01 16:11:17;;;;;;;12.53;8.90;;;22.20;99.90;;;;;;5079805;28;21031;-64
2023/10/01 16:14:04;;;;;;;11.13;8.47;;;22.20;99.90;;;;;;5083849;28;20483;-64
2023/10/01 16:16:47;;;;;;;11.50;8.07;;;22.10;99.90;;;;;;5069803;28;20497;-63
2023/10/01 16:19:26;;;;;;;11.07;7.90;;;22.10;99.90;;;;;;5078575;28;20426;-63
2023/10/01 16:22:04;;;;;;;14.20;9.10;;;22.10;99.90;;;;;;5071247;28;20439;-63
2023/10/01 16:24:57;;;;;;;13.27;8.90;;;22.10;99.90;;;;;;5072206;28;20438;-64
2023/10/01 16:27:44;;;;;;;16.80;10.57;;;22.00;99.90;;;;;;5055565;28;20435;-63
2023/10/01 16:30:23;;;;;;;15.40;10.93;;;21.90;99.90;;;;;;5082948;28;21054;-62
2023/10/01 16:36:20;;;;;;;12.83;9.37;;;21.80;99.90;;;;;;4981512;28;20446;-63
2023/10/01 16:41:31;;;;;;;11.67;8.40;;;21.70;99.90;;;;;;5069419;28;20442;-63
2023/10/01 16:44:30;;;;;;;12.20;8.93;;;21.60;99.90;;;;;;5072125;28;20461;-64
2023/10/01 16:46:57;;;;;;;14.37;8.90;;;21.60;99.90;;;;;;4993925;28;20195;-63
2023/10/01 16:49:26;;;;;;;14.90;9.40;;;21.50;99.90;;;;;;5004636;28;20491;-63
2023/10/01 16:51:56;;;;;;;11.77;7.53;;;21.50;99.90;;;;;;5070243;28;20431;-64
2023/10/01 16:54:38;;;;;;;12.50;8.30;;;21.50;99.90;;;;;;5072440;28;20913;-63
2023/10/01 16:57:25;;;;;;;10.43;7.87;;;21.40;99.90;;;;;;5076473;28;20890;-63
2023/10/01 16:59:56;;;;;;;12.47;8.67;;;21.30;99.90;;;;;;5064158;28;20435;-63
2023/10/01 17:03:35;;;;;;;12.33;8.60;;;21.30;99.90;;;;;;5065380;28;20786;-64
2023/10/01 17:06:49;;;;;;;11.20;8.33;;;21.20;99.90;;;;;;5044992;28;20435;-64
2023/10/01 17:09:52;;;;;;;12.67;8.67;;;21.00;99.90;;;;;;5065105;28;20559;-63
2023/10/01 17:12:35;;;;;;;11.67;7.87;;;20.90;99.90;;;;;;5055823;28;20463;-63
2023/10/01 17:15:01;;;;;;;12.57;8.70;;;20.80;99.90;;;;;;5065675;28;20469;-64
2023/10/01 17:17:44;;;;;;;11.67;7.97;;;20.70;99.90;;;;;;5072362;28;20451;-64
2023/10/01 17:21:14;;;;;;;10.67;7.00;;;20.60;99.90;;;;;;5057651;28;20798;-64
2023/10/01 17:23:45;;;;;;;11.83;8.00;;;20.60;99.90;;;;;;5029004;28;20548;-63
2023/10/01 17:26:27;;;;;;;11.47;7.60;;;20.50;99.90;;;;;;5037213;28;20436;-63
2023/10/01 17:29:36;;;;;;;14.27;9.20;;;20.40;99.90;;;;;;5029377;28;20503;-63
2023/10/01 17:32:25;;;;;;;12.07;8.10;;;20.40;99.90;;;;;;4978108;28;20428;-64
2023/10/01 17:38:19;;;;;;;10.67;7.10;;;20.30;99.90;;;;;;5033572;28;20436;-63
2023/10/01 17:40:54;;;;;;;12.50;7.90;;;20.30;99.90;;;;;;5077649;28;20431;-64
2023/10/01 17:43:38;;;;;;;11.47;7.90;;;20.40;99.90;;;;;;5080597;28;20436;-64
2023/10/01 17:46:13;;;;;;;10.17;6.37;;;20.40;99.90;;;;;;5069656;28;20530;-63
2023/10/01 17:48:39;;;;;;;11.77;7.30;;;20.40;99.90;;;;;;5078252;28;20478;-64
2023/10/01 17:51:22;;;;;;;14.17;8.70;;;20.40;99.90;;;;;;5080862;28;20592;-63
2023/10/01 18:00:41;;;;;;;11.27;7.70;;;20.40;99.90;;;;;;4985813;28;20493;-63
2023/10/01 18:03:34;;;;;;;10.83;7.87;;;20.40;99.90;;;;;;5034169;28;20443;-63
2023/10/01 18:06:20;;;;;;;10.87;6.37;;;20.40;99.90;;;;;;5039479;28;20440;-63